createdAt,value
2019-03-22T00:02:40.172Z,99.41
2019-03-22T00:05:45.129Z,99.46
2019-03-22T00:08:50.125Z,99.37
2019-03-22T00:11:54.976Z,99.35
2019-03-22T00:14:59.776Z,99.25
2019-03-22T00:18:04.705Z,99.34
2019-03-22T00:21:09.514Z,99.30
2019-03-22T00:24:14.447Z,99.22
2019-03-22T00:27:19.397Z,99.13
2019-03-22T00:30:24.318Z,99.05
2019-03-22T00:33:29.234Z,99.11
2019-03-22T00:36:34.064Z,99.37
2019-03-22T00:39:38.883Z,99.34
2019-03-22T00:42:43.693Z,99.37
2019-03-22T00:45:48.643Z,99.43
2019-03-22T00:48:54.957Z,99.40
2019-03-22T00:52:01.585Z,99.43
2019-03-22T00:55:06.784Z,99.46
2019-03-22T00:58:11.822Z,99.48
2019-03-22T01:01:16.757Z,99.48
2019-03-22T01:04:23.706Z,99.46
2019-03-22T01:07:28.536Z,99.34
2019-03-22T01:10:33.385Z,99.31
2019-03-22T01:13:39.320Z,99.33
2019-03-22T01:16:44.218Z,99.26
2019-03-22T01:19:49.035Z,99.18
2019-03-22T01:22:53.868Z,99.26
2019-03-22T01:25:58.745Z,99.45
2019-03-22T01:29:03.893Z,99.62
2019-03-22T01:32:10.132Z,99.63
2019-03-22T01:35:18.233Z,99.66
2019-03-22T01:38:23.147Z,99.53
2019-03-22T01:41:27.975Z,99.64
2019-03-22T01:44:32.836Z,99.83
2019-03-22T01:47:38.333Z,99.97
2019-03-22T01:50:43.161Z,100.00
2019-03-22T01:53:49.067Z,99.98
2019-03-22T01:56:54.132Z,100.00
2019-03-22T01:59:58.968Z,100.00
2019-03-22T02:03:03.988Z,100.00
2019-03-22T02:06:08.895Z,100.00
2019-03-22T02:09:13.710Z,100.00
2019-03-22T02:12:18.802Z,100.00
2019-03-22T02:15:23.709Z,100.00
2019-03-22T02:18:31.171Z,99.96
2019-03-22T02:21:36.658Z,100.00
2019-03-22T02:24:41.579Z,99.97
2019-03-22T02:27:46.600Z,99.83
2019-03-22T02:30:52.952Z,99.57
2019-03-22T02:33:57.910Z,99.37
2019-03-22T02:37:02.698Z,99.23
2019-03-22T02:40:08.185Z,98.97
2019-03-22T02:43:13.065Z,98.84
2019-03-22T02:46:17.901Z,98.61
2019-03-22T02:49:22.833Z,98.27
2019-03-22T02:52:27.734Z,98.19
2019-03-22T02:55:32.667Z,98.24
2019-03-22T02:58:37.609Z,98.28
2019-03-22T03:01:42.621Z,98.10
2019-03-22T03:04:47.446Z,98.32
2019-03-22T03:07:52.277Z,98.59
2019-03-22T03:10:57.435Z,98.87
2019-03-22T03:14:02.261Z,99.00
2019-03-22T03:17:07.218Z,99.19
2019-03-22T03:20:12.891Z,99.30
2019-03-22T03:23:17.701Z,99.34
2019-03-22T03:26:22.637Z,99.20
2019-03-22T03:29:28.481Z,98.99
2019-03-22T03:32:33.486Z,98.88
2019-03-22T03:35:38.485Z,98.88
2019-03-22T03:38:43.402Z,98.80
2019-03-22T03:41:50.590Z,98.85
2019-03-22T03:44:55.476Z,98.82
2019-03-22T03:48:00.837Z,98.77
2019-03-22T03:51:08.348Z,98.58
2019-03-22T03:54:16.209Z,98.42
2019-03-22T03:57:21.117Z,98.24
2019-03-22T04:00:26.072Z,97.99
2019-03-22T04:03:30.881Z,97.94
2019-03-22T04:06:37.741Z,97.90
2019-03-22T04:09:42.621Z,97.61
2019-03-22T04:12:47.652Z,97.34
2019-03-22T04:15:52.480Z,97.17
2019-03-22T04:18:57.407Z,97.15
2019-03-22T04:22:02.332Z,97.10
2019-03-22T04:25:07.385Z,97.11
2019-03-22T04:28:12.225Z,97.20
2019-03-22T04:31:17.148Z,97.27
2019-03-22T04:34:22.076Z,97.39
2019-03-22T04:37:27.030Z,97.46
2019-03-22T04:40:33.141Z,97.48
2019-03-22T04:43:37.977Z,97.46
2019-03-22T04:46:44.654Z,97.52
2019-03-22T04:49:52.095Z,97.63
2019-03-22T04:52:57.637Z,97.58
2019-03-22T04:56:06.310Z,97.49
2019-03-22T04:59:19.297Z,97.67
2019-03-22T05:02:22.350Z,97.69
2019-03-22T05:05:27.385Z,97.72
2019-03-22T05:08:35.473Z,97.63
2019-03-22T05:11:41.617Z,97.61
2019-03-22T05:14:47.099Z,97.67
2019-03-22T05:17:52.669Z,97.74
2019-03-22T05:20:58.405Z,97.72
2019-03-22T05:24:05.685Z,97.75
2019-03-22T05:27:11.499Z,97.77
2019-03-22T05:31:01.069Z,97.87
2019-03-22T05:34:06.000Z,97.70
2019-03-22T05:37:10.917Z,97.60
2019-03-22T05:40:15.733Z,97.52
2019-03-22T05:43:20.705Z,97.64
2019-03-22T05:46:25.615Z,97.67
2019-03-22T05:49:33.513Z,97.50
2019-03-22T05:52:38.350Z,97.50
2019-03-22T05:55:43.211Z,97.57
2019-03-22T05:58:49.897Z,97.49
2019-03-22T06:01:54.822Z,97.44
2019-03-22T06:04:59.768Z,97.48
2019-03-22T06:08:05.204Z,97.44
2019-03-22T06:11:10.184Z,97.33
2019-03-22T06:14:15.296Z,97.49
2019-03-22T06:17:20.213Z,97.32
2019-03-22T06:20:25.138Z,97.31
2019-03-22T06:23:30.016Z,97.40
2019-03-22T06:26:34.852Z,97.30
2019-03-22T06:29:39.768Z,97.34
2019-03-22T06:32:44.657Z,97.20
2019-03-22T06:35:52.409Z,97.05
2019-03-22T06:38:57.336Z,96.76
2019-03-22T06:42:03.122Z,96.71
2019-03-22T06:45:08.446Z,96.62
2019-03-22T06:48:13.282Z,96.48
2019-03-22T06:51:18.114Z,96.38
2019-03-22T06:54:31.585Z,96.39
2019-03-22T06:57:29.685Z,96.34
2019-03-22T07:00:37.708Z,96.47
2019-03-22T07:03:42.546Z,96.55
2019-03-22T07:06:47.356Z,96.47
2019-03-22T07:09:52.211Z,96.60
2019-03-22T07:12:57.058Z,96.57
2019-03-22T07:16:01.883Z,96.36
2019-03-22T07:19:07.187Z,96.24
2019-03-22T07:22:12.022Z,96.20
2019-03-22T07:25:18.105Z,96.30
2019-03-22T07:28:22.943Z,96.26
2019-03-22T07:31:27.764Z,95.92
2019-03-22T07:34:32.594Z,96.08
2019-03-22T07:37:37.430Z,96.13
2019-03-22T07:40:42.250Z,95.98
2019-03-22T07:43:47.067Z,95.88
2019-03-22T07:46:51.891Z,95.92
2019-03-22T07:49:56.697Z,96.00
2019-03-22T07:53:01.612Z,95.92
2019-03-22T07:56:06.600Z,95.77
2019-03-22T07:59:11.501Z,95.90
2019-03-22T08:02:16.430Z,95.82
2019-03-22T08:05:21.360Z,95.82
2019-03-22T08:08:26.303Z,95.66
2019-03-22T08:11:31.234Z,95.91
2019-03-22T08:14:36.064Z,95.73
2019-03-22T08:17:40.996Z,95.75
2019-03-22T08:20:46.082Z,95.67
2019-03-22T08:23:50.983Z,95.62
2019-03-22T08:26:55.938Z,95.40
2019-03-22T08:30:02.759Z,95.47
2019-03-22T08:33:08.226Z,95.56
2019-03-22T08:36:14.933Z,95.76
2019-03-22T08:39:19.575Z,95.29
2019-03-22T08:42:24.504Z,95.17
2019-03-22T08:45:29.426Z,94.97
2019-03-22T08:48:34.436Z,94.88
2019-03-22T08:51:41.694Z,94.96
2019-03-22T08:54:46.530Z,94.95
2019-03-22T08:57:51.354Z,95.09
2019-03-22T09:00:57.904Z,94.79
2019-03-22T09:04:02.858Z,94.60
2019-03-22T09:07:07.665Z,94.44
2019-03-22T09:10:13.529Z,94.42
2019-03-22T09:13:18.462Z,94.69
2019-03-22T09:16:23.413Z,94.53
2019-03-22T09:19:28.278Z,94.38
2019-03-22T09:22:33.178Z,94.51
2019-03-22T09:25:37.967Z,94.60
2019-03-22T09:28:45.096Z,94.83
2019-03-22T09:31:49.915Z,94.94
2019-03-22T09:34:54.993Z,94.72
2019-03-22T09:38:12.049Z,94.41
2019-03-22T09:41:07.893Z,94.72
2019-03-22T09:44:14.262Z,94.62
2019-03-22T09:47:19.162Z,95.00
2019-03-22T09:50:23.974Z,95.06
2019-03-22T09:53:30.474Z,95.15
2019-03-22T09:56:46.452Z,95.00
2019-03-22T09:59:42.175Z,94.98
2019-03-22T10:02:47.110Z,94.79
2019-03-22T10:05:51.951Z,94.67
2019-03-22T10:08:56.803Z,94.76
2019-03-22T10:12:01.718Z,94.74
2019-03-22T10:15:07.180Z,94.84
2019-03-22T10:18:12.040Z,94.74
2019-03-22T10:21:22.342Z,94.74
2019-03-22T10:24:23.765Z,94.31
2019-03-22T10:27:31.550Z,94.10
2019-03-22T10:30:36.355Z,94.01
2019-03-22T10:33:41.208Z,94.15
2019-03-22T10:36:46.016Z,94.26
2019-03-22T10:39:50.989Z,94.17
2019-03-22T10:42:55.839Z,94.35
2019-03-22T10:46:01.107Z,94.26
2019-03-22T10:49:05.881Z,94.26
2019-03-22T10:52:10.653Z,94.27
2019-03-22T10:55:29.303Z,94.30
2019-03-22T10:58:22.367Z,94.35
2019-03-22T11:01:27.257Z,93.85
2019-03-22T11:04:32.063Z,94.03
2019-03-22T11:07:36.899Z,94.21
2019-03-22T11:10:41.855Z,94.21
2019-03-22T11:13:49.783Z,93.98
2019-03-22T11:16:56.135Z,93.50
2019-03-22T11:20:00.978Z,92.88
2019-03-22T11:23:05.909Z,92.90
2019-03-22T11:26:10.769Z,93.42
2019-03-22T11:29:18.559Z,93.50
2019-03-22T11:32:23.494Z,93.01
2019-03-22T11:35:31.631Z,93.04
2019-03-22T11:38:36.452Z,92.97
2019-03-22T11:41:41.659Z,92.76
2019-03-22T11:44:46.497Z,92.95
2019-03-22T11:47:51.317Z,92.76
2019-03-22T11:50:56.210Z,92.43
2019-03-22T11:54:01.129Z,91.89
2019-03-22T11:57:06.244Z,91.74
2019-03-22T12:00:15.435Z,91.56
2019-03-22T12:03:20.286Z,91.33
2019-03-22T12:06:27.280Z,91.03
2019-03-22T12:09:31.811Z,91.16
2019-03-22T12:12:36.697Z,91.17
2019-03-22T12:15:41.548Z,91.14
2019-03-22T12:18:46.391Z,90.76
2019-03-22T12:21:51.218Z,90.40
2019-03-22T12:24:56.087Z,90.16
2019-03-22T12:28:01.018Z,90.37
2019-03-22T12:31:05.932Z,90.35
2019-03-22T12:34:11.002Z,90.40
2019-03-22T12:37:15.936Z,90.26
2019-03-22T12:40:21.230Z,90.04
2019-03-22T12:43:28.472Z,90.25
2019-03-22T12:46:33.403Z,90.19
2019-03-22T12:49:38.373Z,89.93
2019-03-22T12:52:43.527Z,89.96
2019-03-22T12:55:48.791Z,89.91
2019-03-22T12:58:53.704Z,89.89
2019-03-22T13:01:58.539Z,89.40
2019-03-22T13:05:03.453Z,89.21
2019-03-22T13:08:08.411Z,89.14
2019-03-22T13:11:14.712Z,89.17
2019-03-22T13:14:19.540Z,89.25
2019-03-22T13:17:24.525Z,88.87
2019-03-22T13:20:32.336Z,89.07
2019-03-22T13:23:37.205Z,88.58
2019-03-22T13:26:42.047Z,88.26
2019-03-22T13:29:47.231Z,87.76
2019-03-22T13:32:52.419Z,87.65
2019-03-22T13:35:57.442Z,87.12
2019-03-22T13:39:02.340Z,86.84
2019-03-22T13:42:07.173Z,86.67
2019-03-22T13:45:12.013Z,86.52
2019-03-22T13:48:16.849Z,86.51
2019-03-22T13:51:21.775Z,86.56
2019-03-22T13:54:29.446Z,86.38
2019-03-22T13:57:36.986Z,85.99
2019-03-22T14:00:41.823Z,85.78
2019-03-22T14:03:46.682Z,85.17
2019-03-22T14:06:51.599Z,85.01
2019-03-22T14:09:56.425Z,85.49
2019-03-22T14:13:01.821Z,85.31
2019-03-22T14:16:06.641Z,84.93
2019-03-22T14:19:11.507Z,84.90
2019-03-22T14:22:16.368Z,84.99
2019-03-22T14:25:21.339Z,84.93
2019-03-22T14:28:26.523Z,85.15
2019-03-22T14:31:31.447Z,85.38
2019-03-22T14:34:37.633Z,85.41
2019-03-22T14:37:42.518Z,85.59
2019-03-22T14:40:50.473Z,85.87
2019-03-22T14:43:55.395Z,86.00
2019-03-22T14:47:03.423Z,85.88
2019-03-22T14:50:08.797Z,85.93
2019-03-22T14:53:13.658Z,86.14
2019-03-22T14:56:21.337Z,85.74
2019-03-22T14:59:26.166Z,85.48
2019-03-22T15:02:31.002Z,85.53
2019-03-22T15:05:35.843Z,85.10
2019-03-22T15:08:40.706Z,85.42
2019-03-22T15:11:45.655Z,85.34
2019-03-22T15:15:11.027Z,85.42
2019-03-22T15:18:40.881Z,85.07
2019-03-22T15:22:10.689Z,84.79
2019-03-22T15:25:27.879Z,85.22
2019-03-22T15:28:53.784Z,85.19
2019-03-22T15:32:14.249Z,85.57
2019-03-22T15:35:36.588Z,85.61
2019-03-22T15:38:59.129Z,86.11
2019-03-22T15:42:04.187Z,86.60
2019-03-22T15:45:11.015Z,86.98
2019-03-22T15:48:15.895Z,86.72
2019-03-22T15:51:20.787Z,86.13
2019-03-22T15:54:25.653Z,85.07
2019-03-22T15:57:30.698Z,84.26
2019-03-22T16:00:35.570Z,84.26
2019-03-22T16:03:44.344Z,83.98
2019-03-22T16:06:49.034Z,83.66
2019-03-22T16:09:53.997Z,83.71
2019-03-22T16:12:58.960Z,83.65
2019-03-22T16:16:04.080Z,83.43
2019-03-22T16:19:09.052Z,83.80
2019-03-22T16:22:13.905Z,84.12
2019-03-22T16:25:18.866Z,84.26
2019-03-22T16:28:23.712Z,84.56
2019-03-22T16:31:28.558Z,85.00
2019-03-22T16:34:33.394Z,84.83
2019-03-22T16:37:38.525Z,85.47
2019-03-22T16:40:43.366Z,85.75
2019-03-22T16:43:48.325Z,85.94
2019-03-22T16:46:53.306Z,85.84
2019-03-22T16:49:58.172Z,85.80
2019-03-22T16:53:03.133Z,86.11
2019-03-22T16:56:09.509Z,86.50
2019-03-22T16:59:16.813Z,86.86
2019-03-22T17:02:21.947Z,87.27
2019-03-22T17:05:26.801Z,87.76
2019-03-22T17:08:33.230Z,88.27
2019-03-22T17:11:38.249Z,88.44
2019-03-22T17:14:43.341Z,88.77
2019-03-22T17:17:48.225Z,89.36
2019-03-22T17:20:58.271Z,89.36
2019-03-22T17:24:03.277Z,89.38
2019-03-22T17:27:08.237Z,89.51
2019-03-22T17:30:13.710Z,89.83
2019-03-22T17:33:18.551Z,90.27
2019-03-22T17:36:26.584Z,90.98
2019-03-22T17:39:31.439Z,91.14
2019-03-22T17:42:36.324Z,91.37
2019-03-22T17:45:44.226Z,91.68
2019-03-22T17:48:49.179Z,91.82
2019-03-22T17:51:54.149Z,91.87
2019-03-22T17:54:59.196Z,92.16
2019-03-22T17:58:04.274Z,92.31
2019-03-22T18:01:09.231Z,92.51
2019-03-22T18:04:23.694Z,92.53
2019-03-22T18:07:20.668Z,92.85
2019-03-22T18:10:25.510Z,93.06
2019-03-22T18:13:31.460Z,93.23
2019-03-22T18:16:36.368Z,93.37
2019-03-22T18:19:41.432Z,93.70
2019-03-22T18:22:49.149Z,94.02
2019-03-22T18:25:56.861Z,94.08
2019-03-22T18:29:04.405Z,94.24
2019-03-22T18:32:09.445Z,94.42
2019-03-22T18:35:14.571Z,94.57
2019-03-22T18:38:19.532Z,94.75
2019-03-22T18:41:24.413Z,94.92
2019-03-22T18:44:29.364Z,95.05
2019-03-22T18:47:34.544Z,95.02
2019-03-22T18:50:39.405Z,95.06
2019-03-22T18:53:46.296Z,95.31
2019-03-22T18:56:50.998Z,95.35
2019-03-22T18:59:57.528Z,95.40
2019-03-22T19:03:02.421Z,95.45
2019-03-22T19:06:07.251Z,95.52
2019-03-22T19:09:14.595Z,95.62
2019-03-22T19:12:19.537Z,95.81
2019-03-22T19:15:24.422Z,95.88
2019-03-22T19:18:29.263Z,95.94
2019-03-22T19:21:37.817Z,96.00
2019-03-22T19:24:42.964Z,96.10
2019-03-22T19:27:48.117Z,96.06
2019-03-22T19:30:54.615Z,96.12
2019-03-22T19:33:59.879Z,95.95
2019-03-22T19:37:04.992Z,95.88
2019-03-22T19:40:10.330Z,95.97
2019-03-22T19:43:15.515Z,96.12
2019-03-22T19:46:20.684Z,96.18
2019-03-22T19:49:25.662Z,96.23
2019-03-22T19:52:34.894Z,96.40
2019-03-22T19:55:40.149Z,96.54
2019-03-22T19:58:45.170Z,96.56
2019-03-22T20:01:52.150Z,96.52
2019-03-22T20:05:04.737Z,96.64
2019-03-22T20:08:05.037Z,96.73
2019-03-22T20:11:10.080Z,96.82
2019-03-22T20:14:17.763Z,96.86
2019-03-22T20:17:22.890Z,96.92
2019-03-22T20:20:28.042Z,96.96
2019-03-22T20:23:33.292Z,97.01
2019-03-22T20:26:38.588Z,97.01
2019-03-22T20:29:43.772Z,96.97
2019-03-22T20:32:48.975Z,97.00
2019-03-22T20:35:54.282Z,97.01
2019-03-22T20:38:59.291Z,97.02
2019-03-22T20:42:04.590Z,97.08
2019-03-22T20:45:10.647Z,97.16
2019-03-22T20:48:15.659Z,97.25
2019-03-22T20:51:21.117Z,97.31
2019-03-22T20:54:26.863Z,97.35
2019-03-22T20:57:33.815Z,97.35
2019-03-22T21:00:38.953Z,97.37
2019-03-22T21:03:44.082Z,97.38
2019-03-22T21:06:49.051Z,97.41
2019-03-22T21:09:54.223Z,97.44
2019-03-22T21:12:59.230Z,97.45
2019-03-22T21:16:04.126Z,97.51
2019-03-22T21:19:09.130Z,97.52
2019-03-22T21:22:14.379Z,97.55
2019-03-22T21:25:19.528Z,97.62
2019-03-22T21:28:24.600Z,97.71
2019-03-22T21:31:31.570Z,97.76
2019-03-22T21:34:36.642Z,97.87
2019-03-22T21:37:41.565Z,97.96
2019-03-22T21:40:46.587Z,97.98
2019-03-22T21:43:51.787Z,98.06
2019-03-22T21:46:56.740Z,98.04
2019-03-22T21:50:01.606Z,98.11
2019-03-22T21:53:06.518Z,98.15
2019-03-22T21:56:11.405Z,98.22
2019-03-22T21:59:18.602Z,98.25
2019-03-22T22:02:26.237Z,98.35
2019-03-22T22:05:36.224Z,98.41
2019-03-22T22:08:44.730Z,98.49
2019-03-22T22:11:51.755Z,98.58
2019-03-22T22:15:00.842Z,98.59
2019-03-22T22:18:08.029Z,98.66
2019-03-22T22:21:15.173Z,98.65
2019-03-22T22:24:22.535Z,98.76
2019-03-22T22:27:29.926Z,98.78
2019-03-22T22:30:37.694Z,98.77
2019-03-22T22:33:44.975Z,98.95
2019-03-22T22:36:52.252Z,99.03
2019-03-22T22:40:00.129Z,99.07
2019-03-22T22:43:06.841Z,99.36
2019-03-22T22:46:11.780Z,99.60
2019-03-22T22:49:16.719Z,99.80
2019-03-22T22:52:21.819Z,99.83
2019-03-22T22:55:26.855Z,100.00
2019-03-22T22:58:31.793Z,100.00
2019-03-22T23:01:37.245Z,100.00
2019-03-22T23:04:42.199Z,100.00
2019-03-22T23:07:47.094Z,100.00
2019-03-22T23:10:52.337Z,100.00
2019-03-22T23:13:57.296Z,100.00
2019-03-22T23:17:02.156Z,100.00
2019-03-22T23:20:08.708Z,100.00
2019-03-22T23:23:13.644Z,100.00
2019-03-22T23:26:18.574Z,100.00
2019-03-22T23:29:23.515Z,100.00
2019-03-22T23:32:28.361Z,100.00
2019-03-22T23:35:33.215Z,100.00
2019-03-22T23:38:38.050Z,100.00
2019-03-22T23:41:42.917Z,100.00
2019-03-22T23:44:47.783Z,100.00
2019-03-22T23:47:53.027Z,100.00
2019-03-22T23:50:57.930Z,100.00
2019-03-22T23:54:02.866Z,100.00
2019-03-22T23:57:07.826Z,100.00
